sensor_id;sensor_type;location;lat;lon;timestamp;pressure;altitude;pressure_sealevel;temperature;humidity
41306;BME280;27051;50.376;19.152;2023-02-23T00:00:51;98241.59;;;3.06;55.97
41306;BME280;27051;50.376;19.152;2023-02-23T00:03:17;98240.07;;;3.05;55.74
41306;BME280;27051;50.376;19.152;2023-02-23T00:05:43;98240.27;;;3.03;55.73
41306;BME280;27051;50.376;19.152;2023-02-23T00:08:10;98244.05;;;3.01;55.60
41306;BME280;27051;50.376;19.152;2023-02-23T00:10:36;98242.34;;;3.03;55.68
41306;BME280;27051;50.376;19.152;2023-02-23T00:13:02;98241.34;;;3.06;55.65
41306;BME280;27051;50.376;19.152;2023-02-23T00:15:28;98242.27;;;3.07;55.57
41306;BME280;27051;50.376;19.152;2023-02-23T00:17:56;98240.00;;;3.03;55.42
41306;BME280;27051;50.376;19.152;2023-02-23T00:20:23;98239.67;;;3.02;55.57
41306;BME280;27051;50.376;19.152;2023-02-23T00:22:52;98236.76;;;2.99;55.48
41306;BME280;27051;50.376;19.152;2023-02-23T00:25:20;98245.70;;;2.96;55.53
41306;BME280;27051;50.376;19.152;2023-02-23T00:27:46;98242.58;;;2.96;55.61
41306;BME280;27051;50.376;19.152;2023-02-23T00:30:14;98242.61;;;2.98;55.61
41306;BME280;27051;50.376;19.152;2023-02-23T00:32:40;98244.17;;;3.00;55.57
41306;BME280;27051;50.376;19.152;2023-02-23T00:35:07;98245.05;;;3.02;55.61
41306;BME280;27051;50.376;19.152;2023-02-23T00:37:33;98248.81;;;3.06;55.48
41306;BME280;27051;50.376;19.152;2023-02-23T00:39:59;98247.45;;;3.10;55.56
41306;BME280;27051;50.376;19.152;2023-02-23T00:42:26;98246.96;;;3.10;55.55
41306;BME280;27051;50.376;19.152;2023-02-23T00:44:52;98247.48;;;3.10;55.50
41306;BME280;27051;50.376;19.152;2023-02-23T00:47:18;98248.48;;;3.14;55.61
41306;BME280;27051;50.376;19.152;2023-02-23T00:49:44;98245.56;;;3.19;55.60
41306;BME280;27051;50.376;19.152;2023-02-23T00:52:10;98242.92;;;3.21;55.56
41306;BME280;27051;50.376;19.152;2023-02-23T00:54:36;98240.09;;;3.26;55.43
41306;BME280;27051;50.376;19.152;2023-02-23T00:57:03;98240.84;;;3.26;55.48
41306;BME280;27051;50.376;19.152;2023-02-23T00:59:29;98238.11;;;3.28;55.48
41306;BME280;27051;50.376;19.152;2023-02-23T01:01:55;98238.95;;;3.28;55.44
41306;BME280;27051;50.376;19.152;2023-02-23T01:04:21;98231.93;;;3.24;55.29
41306;BME280;27051;50.376;19.152;2023-02-23T01:06:47;98234.08;;;3.23;55.44
41306;BME280;27051;50.376;19.152;2023-02-23T01:09:15;98235.90;;;3.26;55.41
41306;BME280;27051;50.376;19.152;2023-02-23T01:11:41;98238.14;;;3.25;55.38
41306;BME280;27051;50.376;19.152;2023-02-23T01:14:09;98236.00;;;3.22;55.37
41306;BME280;27051;50.376;19.152;2023-02-23T01:16:35;98239.90;;;3.18;55.45
41306;BME280;27051;50.376;19.152;2023-02-23T01:19:03;98240.86;;;3.16;55.47
41306;BME280;27051;50.376;19.152;2023-02-23T01:21:32;98239.06;;;3.17;55.38
41306;BME280;27051;50.376;19.152;2023-02-23T01:23:59;98234.53;;;3.17;55.42
41306;BME280;27051;50.376;19.152;2023-02-23T01:26:28;98232.38;;;3.15;55.39
41306;BME280;27051;50.376;19.152;2023-02-23T01:28:59;98231.39;;;3.10;55.46
41306;BME280;27051;50.376;19.152;2023-02-23T01:31:27;98231.27;;;3.08;55.57
41306;BME280;27051;50.376;19.152;2023-02-23T01:33:56;98228.20;;;3.10;55.50
41306;BME280;27051;50.376;19.152;2023-02-23T01:36:23;98222.84;;;3.10;55.27
41306;BME280;27051;50.376;19.152;2023-02-23T01:38:49;98222.98;;;3.07;55.51
41306;BME280;27051;50.376;19.152;2023-02-23T01:41:15;98221.92;;;3.08;55.40
41306;BME280;27051;50.376;19.152;2023-02-23T01:44:02;98221.63;;;3.06;55.45
41306;BME280;27051;50.376;19.152;2023-02-23T01:46:37;98217.55;;;3.05;55.53
41306;BME280;27051;50.376;19.152;2023-02-23T01:49:06;98213.95;;;3.08;55.51
41306;BME280;27051;50.376;19.152;2023-02-23T01:51:37;98213.48;;;3.04;55.43
41306;BME280;27051;50.376;19.152;2023-02-23T01:54:10;98211.61;;;3.04;55.61
41306;BME280;27051;50.376;19.152;2023-02-23T01:56:40;98208.15;;;3.06;55.55
41306;BME280;27051;50.376;19.152;2023-02-23T01:59:09;98202.25;;;3.05;55.51
41306;BME280;27051;50.376;19.152;2023-02-23T02:01:41;98201.88;;;3.05;55.62
41306;BME280;27051;50.376;19.152;2023-02-23T02:04:08;98195.73;;;3.08;55.65
41306;BME280;27051;50.376;19.152;2023-02-23T02:06:36;98196.96;;;3.08;55.58
41306;BME280;27051;50.376;19.152;2023-02-23T02:09:08;98193.05;;;3.10;55.60
41306;BME280;27051;50.376;19.152;2023-02-23T02:11:36;98191.98;;;3.07;55.52
41306;BME280;27051;50.376;19.152;2023-02-23T02:14:08;98188.80;;;3.06;55.60
41306;BME280;27051;50.376;19.152;2023-02-23T02:16:44;98187.23;;;3.00;55.44
41306;BME280;27051;50.376;19.152;2023-02-23T02:28:26;98177.99;;;2.97;55.59
41306;BME280;27051;50.376;19.152;2023-02-23T02:42:11;98171.84;;;2.93;55.77
41306;BME280;27051;50.376;19.152;2023-02-23T02:45:07;98171.22;;;2.91;55.63
41306;BME280;27051;50.376;19.152;2023-02-23T02:50:27;98168.62;;;2.95;55.93
41306;BME280;27051;50.376;19.152;2023-02-23T02:53:00;98168.27;;;3.00;55.93
41306;BME280;27051;50.376;19.152;2023-02-23T02:55:30;98166.79;;;2.96;55.81
41306;BME280;27051;50.376;19.152;2023-02-23T02:57:57;98168.53;;;2.93;55.96
41306;BME280;27051;50.376;19.152;2023-02-23T03:00:36;98166.06;;;2.92;55.90
41306;BME280;27051;50.376;19.152;2023-02-23T03:03:02;98162.52;;;2.88;55.85
41306;BME280;27051;50.376;19.152;2023-02-23T03:05:44;98166.35;;;2.86;56.03
41306;BME280;27051;50.376;19.152;2023-02-23T03:08:19;98162.08;;;2.88;55.89
41306;BME280;27051;50.376;19.152;2023-02-23T03:10:55;98163.45;;;2.88;55.90
41306;BME280;27051;50.376;19.152;2023-02-23T03:13:42;98165.07;;;2.90;56.01
41306;BME280;27051;50.376;19.152;2023-02-23T03:21:37;98165.27;;;2.91;56.07
41306;BME280;27051;50.376;19.152;2023-02-23T03:27:48;98163.27;;;2.93;56.21
41306;BME280;27051;50.376;19.152;2023-02-23T03:30:21;98166.55;;;2.92;56.08
41306;BME280;27051;50.376;19.152;2023-02-23T03:32:53;98164.55;;;2.90;56.05
41306;BME280;27051;50.376;19.152;2023-02-23T03:35:34;98161.48;;;2.92;56.05
41306;BME280;27051;50.376;19.152;2023-02-23T03:38:11;98162.41;;;2.91;56.10
41306;BME280;27051;50.376;19.152;2023-02-23T03:40:41;98161.42;;;2.90;56.02
41306;BME280;27051;50.376;19.152;2023-02-23T03:43:12;98160.28;;;2.91;56.15
41306;BME280;27051;50.376;19.152;2023-02-23T03:45:42;98161.58;;;2.90;56.14
41306;BME280;27051;50.376;19.152;2023-02-23T03:48:11;98159.91;;;2.91;56.36
41306;BME280;27051;50.376;19.152;2023-02-23T03:50:41;98160.89;;;2.90;56.23
41306;BME280;27051;50.376;19.152;2023-02-23T03:53:08;98161.80;;;2.89;56.30
41306;BME280;27051;50.376;19.152;2023-02-23T03:55:41;98161.14;;;2.90;56.27
41306;BME280;27051;50.376;19.152;2023-02-23T03:58:10;98162.96;;;2.93;56.27
41306;BME280;27051;50.376;19.152;2023-02-23T04:00:44;98160.80;;;2.93;56.27
41306;BME280;27051;50.376;19.152;2023-02-23T04:03:14;98161.75;;;2.92;56.17
41306;BME280;27051;50.376;19.152;2023-02-23T04:05:43;98160.98;;;2.83;56.19
41306;BME280;27051;50.376;19.152;2023-02-23T04:08:13;98164.23;;;2.78;56.35
41306;BME280;27051;50.376;19.152;2023-02-23T04:10:50;98166.66;;;2.75;56.22
41306;BME280;27051;50.376;19.152;2023-02-23T04:13:21;98161.77;;;2.75;56.42
41306;BME280;27051;50.376;19.152;2023-02-23T04:15:56;98163.65;;;2.77;56.41
41306;BME280;27051;50.376;19.152;2023-02-23T04:18:29;98159.27;;;2.79;56.39
41306;BME280;27051;50.376;19.152;2023-02-23T04:20:57;98159.44;;;2.83;56.66
41306;BME280;27051;50.376;19.152;2023-02-23T04:23:23;98155.90;;;2.86;56.56
41306;BME280;27051;50.376;19.152;2023-02-23T04:25:50;98157.02;;;2.89;56.63
41306;BME280;27051;50.376;19.152;2023-02-23T04:28:17;98154.49;;;2.88;56.45
41306;BME280;27051;50.376;19.152;2023-02-23T04:30:44;98157.14;;;2.87;56.50
41306;BME280;27051;50.376;19.152;2023-02-23T04:33:10;98158.93;;;2.85;56.48
41306;BME280;27051;50.376;19.152;2023-02-23T04:35:37;98158.28;;;2.83;56.49
41306;BME280;27051;50.376;19.152;2023-02-23T04:38:03;98156.48;;;2.85;56.47
41306;BME280;27051;50.376;19.152;2023-02-23T04:40:30;98154.64;;;2.86;56.52
41306;BME280;27051;50.376;19.152;2023-02-23T04:42:56;98154.85;;;2.85;56.47
41306;BME280;27051;50.376;19.152;2023-02-23T04:45:23;98155.55;;;2.84;56.45
41306;BME280;27051;50.376;19.152;2023-02-23T04:47:50;98151.38;;;2.82;56.48
41306;BME280;27051;50.376;19.152;2023-02-23T04:50:17;98151.27;;;2.82;56.57
41306;BME280;27051;50.376;19.152;2023-02-23T04:52:43;98145.75;;;2.87;56.70
41306;BME280;27051;50.376;19.152;2023-02-23T04:55:18;98147.39;;;2.86;56.73
41306;BME280;27051;50.376;19.152;2023-02-23T04:57:44;98148.77;;;2.84;56.50
41306;BME280;27051;50.376;19.152;2023-02-23T05:00:11;98149.55;;;2.80;56.45
41306;BME280;27051;50.376;19.152;2023-02-23T05:02:38;98147.01;;;2.81;56.42
41306;BME280;27051;50.376;19.152;2023-02-23T05:05:05;98149.20;;;2.82;56.53
41306;BME280;27051;50.376;19.152;2023-02-23T05:07:31;98148.09;;;2.82;56.38
41306;BME280;27051;50.376;19.152;2023-02-23T05:09:57;98148.27;;;2.77;56.37
41306;BME280;27051;50.376;19.152;2023-02-23T05:12:23;98148.47;;;2.70;56.44
41306;BME280;27051;50.376;19.152;2023-02-23T05:14:49;98146.32;;;2.67;56.43
41306;BME280;27051;50.376;19.152;2023-02-23T05:17:16;98145.52;;;2.59;56.33
41306;BME280;27051;50.376;19.152;2023-02-23T05:19:42;98144.33;;;2.53;56.56
41306;BME280;27051;50.376;19.152;2023-02-23T05:22:08;98142.02;;;2.54;56.60
41306;BME280;27051;50.376;19.152;2023-02-23T05:24:34;98141.46;;;2.49;56.70
41306;BME280;27051;50.376;19.152;2023-02-23T05:27:00;98141.85;;;2.51;56.68
41306;BME280;27051;50.376;19.152;2023-02-23T05:29:27;98140.98;;;2.52;56.77
41306;BME280;27051;50.376;19.152;2023-02-23T05:31:53;98142.95;;;2.57;56.78
41306;BME280;27051;50.376;19.152;2023-02-23T05:34:19;98150.32;;;2.57;56.77
41306;BME280;27051;50.376;19.152;2023-02-23T05:36:45;98147.27;;;2.60;56.88
41306;BME280;27051;50.376;19.152;2023-02-23T05:39:11;98147.80;;;2.64;56.83
41306;BME280;27051;50.376;19.152;2023-02-23T05:41:38;98149.50;;;2.65;56.65
41306;BME280;27051;50.376;19.152;2023-02-23T05:44:04;98150.04;;;2.59;56.63
41306;BME280;27051;50.376;19.152;2023-02-23T05:46:30;98147.39;;;2.55;56.86
41306;BME280;27051;50.376;19.152;2023-02-23T05:48:58;98150.09;;;2.55;56.77
41306;BME280;27051;50.376;19.152;2023-02-23T05:51:27;98147.60;;;2.57;56.92
41306;BME280;27051;50.376;19.152;2023-02-23T05:53:53;98150.27;;;2.61;56.67
41306;BME280;27051;50.376;19.152;2023-02-23T05:56:20;98147.60;;;2.53;56.73
41306;BME280;27051;50.376;19.152;2023-02-23T05:58:57;98152.89;;;2.51;56.85
41306;BME280;27051;50.376;19.152;2023-02-23T06:01:24;98150.70;;;2.44;56.75
41306;BME280;27051;50.376;19.152;2023-02-23T06:03:51;98152.55;;;2.44;57.09
41306;BME280;27051;50.376;19.152;2023-02-23T06:06:17;98155.33;;;2.43;56.90
41306;BME280;27051;50.376;19.152;2023-02-23T06:08:43;98157.05;;;2.41;57.05
41306;BME280;27051;50.376;19.152;2023-02-23T06:11:10;98159.19;;;2.35;57.02
41306;BME280;27051;50.376;19.152;2023-02-23T06:13:36;98165.11;;;2.36;57.16
41306;BME280;27051;50.376;19.152;2023-02-23T06:16:02;98163.11;;;2.39;57.16
41306;BME280;27051;50.376;19.152;2023-02-23T06:18:29;98160.41;;;2.49;57.33
41306;BME280;27051;50.376;19.152;2023-02-23T06:20:58;98161.09;;;2.57;57.41
41306;BME280;27051;50.376;19.152;2023-02-23T06:23:25;98163.86;;;2.69;57.41
41306;BME280;27051;50.376;19.152;2023-02-23T06:25:51;98165.66;;;2.82;57.52
41306;BME280;27051;50.376;19.152;2023-02-23T06:28:17;98165.67;;;2.96;57.41
41306;BME280;27051;50.376;19.152;2023-02-23T06:30:43;98163.51;;;3.04;57.20
41306;BME280;27051;50.376;19.152;2023-02-23T06:33:09;98162.80;;;3.15;57.17
41306;BME280;27051;50.376;19.152;2023-02-23T06:35:35;98160.46;;;3.26;57.10
41306;BME280;27051;50.376;19.152;2023-02-23T06:38:03;98161.32;;;3.33;57.00
41306;BME280;27051;50.376;19.152;2023-02-23T06:40:30;98161.29;;;3.38;57.00
41306;BME280;27051;50.376;19.152;2023-02-23T06:42:56;98158.07;;;3.43;56.84
41306;BME280;27051;50.376;19.152;2023-02-23T06:45:22;98162.98;;;3.48;56.86
41306;BME280;27051;50.376;19.152;2023-02-23T06:47:49;98160.48;;;3.52;56.94
41306;BME280;27051;50.376;19.152;2023-02-23T06:50:15;98160.39;;;3.61;56.77
41306;BME280;27051;50.376;19.152;2023-02-23T06:52:41;98160.82;;;3.67;56.64
41306;BME280;27051;50.376;19.152;2023-02-23T06:55:08;98164.06;;;3.71;56.77
41306;BME280;27051;50.376;19.152;2023-02-23T06:57:35;98159.53;;;3.78;56.62
41306;BME280;27051;50.376;19.152;2023-02-23T07:00:02;98161.45;;;3.86;56.69
41306;BME280;27051;50.376;19.152;2023-02-23T07:02:28;98161.73;;;3.94;56.80
41306;BME280;27051;50.376;19.152;2023-02-23T07:04:54;98164.36;;;4.04;56.76
41306;BME280;27051;50.376;19.152;2023-02-23T07:07:21;98165.95;;;4.11;56.69
41306;BME280;27051;50.376;19.152;2023-02-23T07:09:47;98166.82;;;4.24;56.64
41306;BME280;27051;50.376;19.152;2023-02-23T07:12:16;98161.38;;;4.37;56.61
41306;BME280;27051;50.376;19.152;2023-02-23T07:14:42;98164.89;;;4.49;56.52
41306;BME280;27051;50.376;19.152;2023-02-23T07:17:08;98164.67;;;4.58;56.37
41306;BME280;27051;50.376;19.152;2023-02-23T07:19:35;98166.55;;;4.68;56.21
41306;BME280;27051;50.376;19.152;2023-02-23T07:22:02;98168.45;;;4.79;56.17
41306;BME280;27051;50.376;19.152;2023-02-23T07:24:28;98166.98;;;4.86;56.13
41306;BME280;27051;50.376;19.152;2023-02-23T07:26:54;98168.95;;;4.88;56.07
41306;BME280;27051;50.376;19.152;2023-02-23T07:29:20;98167.94;;;4.98;55.97
41306;BME280;27051;50.376;19.152;2023-02-23T07:31:46;98167.13;;;5.06;55.96
41306;BME280;27051;50.376;19.152;2023-02-23T07:34:12;98168.10;;;5.14;55.73
41306;BME280;27051;50.376;19.152;2023-02-23T07:36:39;98164.41;;;5.27;55.90
41306;BME280;27051;50.376;19.152;2023-02-23T07:39:05;98162.58;;;5.42;55.77
41306;BME280;27051;50.376;19.152;2023-02-23T07:41:32;98160.35;;;5.56;55.69
41306;BME280;27051;50.376;19.152;2023-02-23T07:43:58;98157.39;;;5.66;55.70
41306;BME280;27051;50.376;19.152;2023-02-23T07:46:25;98159.26;;;5.83;55.58
41306;BME280;27051;50.376;19.152;2023-02-23T07:48:51;98159.55;;;5.98;55.41
41306;BME280;27051;50.376;19.152;2023-02-23T07:51:21;98156.63;;;6.14;55.05
41306;BME280;27051;50.376;19.152;2023-02-23T07:53:51;98155.95;;;6.23;54.83
41306;BME280;27051;50.376;19.152;2023-02-23T07:56:25;98158.23;;;6.31;54.41
41306;BME280;27051;50.376;19.152;2023-02-23T07:58:52;98155.45;;;6.40;54.29
41306;BME280;27051;50.376;19.152;2023-02-23T08:01:18;98158.20;;;6.48;54.25
41306;BME280;27051;50.376;19.152;2023-02-23T08:03:44;98154.52;;;6.61;54.25
41306;BME280;27051;50.376;19.152;2023-02-23T08:06:11;98153.86;;;6.75;53.53
41306;BME280;27051;50.376;19.152;2023-02-23T08:08:38;98150.83;;;6.82;53.70
41306;BME280;27051;50.376;19.152;2023-02-23T08:11:04;98152.68;;;6.91;53.93
41306;BME280;27051;50.376;19.152;2023-02-23T08:13:31;98153.90;;;7.05;53.78
41306;BME280;27051;50.376;19.152;2023-02-23T08:15:58;98154.14;;;7.15;53.45
41306;BME280;27051;50.376;19.152;2023-02-23T08:18:25;98153.61;;;7.17;53.18
41306;BME280;27051;50.376;19.152;2023-02-23T08:21:04;98149.92;;;7.21;53.30
41306;BME280;27051;50.376;19.152;2023-02-23T08:23:32;98148.27;;;7.21;52.77
41306;BME280;27051;50.376;19.152;2023-02-23T08:26:00;98146.55;;;7.22;52.85
41306;BME280;27051;50.376;19.152;2023-02-23T08:28:27;98150.77;;;7.23;52.69
41306;BME280;27051;50.376;19.152;2023-02-23T08:30:54;98151.12;;;7.20;52.79
41306;BME280;27051;50.376;19.152;2023-02-23T08:33:21;98147.78;;;7.21;52.66
41306;BME280;27051;50.376;19.152;2023-02-23T08:35:47;98145.42;;;7.23;52.67
41306;BME280;27051;50.376;19.152;2023-02-23T08:38:13;98147.29;;;7.28;52.84
41306;BME280;27051;50.376;19.152;2023-02-23T08:40:40;98143.20;;;7.31;52.35
41306;BME280;27051;50.376;19.152;2023-02-23T08:43:06;98139.29;;;7.34;52.81
41306;BME280;27051;50.376;19.152;2023-02-23T08:45:32;98142.64;;;7.48;52.75
41306;BME280;27051;50.376;19.152;2023-02-23T08:47:59;98142.30;;;7.58;52.77
41306;BME280;27051;50.376;19.152;2023-02-23T08:50:25;98139.83;;;7.70;52.60
41306;BME280;27051;50.376;19.152;2023-02-23T08:52:52;98133.21;;;7.82;52.62
41306;BME280;27051;50.376;19.152;2023-02-23T08:55:19;98131.31;;;7.97;52.56
41306;BME280;27051;50.376;19.152;2023-02-23T08:57:45;98124.96;;;8.11;52.18
41306;BME280;27051;50.376;19.152;2023-02-23T09:00:11;98123.60;;;8.19;52.06
41306;BME280;27051;50.376;19.152;2023-02-23T09:02:37;98117.88;;;8.31;52.12
41306;BME280;27051;50.376;19.152;2023-02-23T09:05:04;98117.05;;;8.44;51.75
41306;BME280;27051;50.376;19.152;2023-02-23T09:07:30;98115.75;;;8.53;50.66
41306;BME280;27051;50.376;19.152;2023-02-23T09:10:03;98119.77;;;8.58;51.03
41306;BME280;27051;50.376;19.152;2023-02-23T09:12:29;98114.67;;;8.71;51.23
41306;BME280;27051;50.376;19.152;2023-02-23T09:14:55;98117.16;;;8.86;51.44
41306;BME280;27051;50.376;19.152;2023-02-23T09:17:21;98118.65;;;9.04;51.37
41306;BME280;27051;50.376;19.152;2023-02-23T09:19:49;98119.66;;;9.15;50.62
41306;BME280;27051;50.376;19.152;2023-02-23T09:22:15;98122.26;;;9.26;51.04
41306;BME280;27051;50.376;19.152;2023-02-23T09:24:42;98120.94;;;9.38;50.20
41306;BME280;27051;50.376;19.152;2023-02-23T09:27:08;98117.10;;;9.51;50.27
41306;BME280;27051;50.376;19.152;2023-02-23T09:29:34;98117.97;;;9.68;50.43
41306;BME280;27051;50.376;19.152;2023-02-23T09:32:00;98114.98;;;9.92;50.51
41306;BME280;27051;50.376;19.152;2023-02-23T09:34:26;98105.79;;;10.23;50.32
41306;BME280;27051;50.376;19.152;2023-02-23T09:36:53;98109.27;;;10.50;49.89
41306;BME280;27051;50.376;19.152;2023-02-23T09:39:19;98108.21;;;10.66;49.31
41306;BME280;27051;50.376;19.152;2023-02-23T09:50:02;98101.00;;;11.47;48.55
41306;BME280;27051;50.376;19.152;2023-02-23T09:52:39;98101.10;;;11.60;47.69
41306;BME280;27051;50.376;19.152;2023-02-23T09:55:10;98103.57;;;11.68;47.99
41306;BME280;27051;50.376;19.152;2023-02-23T09:57:40;98108.12;;;11.79;47.74
41306;BME280;27051;50.376;19.152;2023-02-23T10:00:14;98109.73;;;11.81;47.34
41306;BME280;27051;50.376;19.152;2023-02-23T10:03:23;98113.26;;;11.89;47.48
41306;BME280;27051;50.376;19.152;2023-02-23T10:05:56;98115.73;;;11.95;46.89
41306;BME280;27051;50.376;19.152;2023-02-23T10:08:44;98114.61;;;12.06;47.31
41306;BME280;27051;50.376;19.152;2023-02-23T10:11:22;98111.40;;;12.21;47.07
41306;BME280;27051;50.376;19.152;2023-02-23T10:19:25;98104.73;;;12.48;46.16
41306;BME280;27051;50.376;19.152;2023-02-23T10:22:05;98102.09;;;12.65;46.11
41306;BME280;27051;50.376;19.152;2023-02-23T10:25:11;98097.85;;;12.83;46.24
41306;BME280;27051;50.376;19.152;2023-02-23T10:27:44;98090.16;;;13.10;46.02
41306;BME280;27051;50.376;19.152;2023-02-23T10:35:20;98085.04;;;13.69;45.25
41306;BME280;27051;50.376;19.152;2023-02-23T10:37:48;98086.36;;;13.84;45.36
41306;BME280;27051;50.376;19.152;2023-02-23T10:40:18;98085.01;;;14.05;44.72
41306;BME280;27051;50.376;19.152;2023-02-23T10:42:45;98083.44;;;14.28;44.59
41306;BME280;27051;50.376;19.152;2023-02-23T10:45:13;98080.19;;;14.53;44.11
41306;BME280;27051;50.376;19.152;2023-02-23T10:47:40;98078.55;;;14.69;43.69
41306;BME280;27051;50.376;19.152;2023-02-23T10:50:12;98077.63;;;14.86;43.69
41306;BME280;27051;50.376;19.152;2023-02-23T10:52:39;98077.67;;;15.09;43.65
41306;BME280;27051;50.376;19.152;2023-02-23T10:55:18;98078.16;;;15.26;43.12
41306;BME280;27051;50.376;19.152;2023-02-23T10:57:45;98074.81;;;15.31;42.80
41306;BME280;27051;50.376;19.152;2023-02-23T11:02:46;98067.91;;;15.59;43.16
41306;BME280;27051;50.376;19.152;2023-02-23T11:05:35;98064.09;;;15.88;42.70
41306;BME280;27051;50.376;19.152;2023-02-23T11:08:19;98054.19;;;16.11;42.21
41306;BME280;27051;50.376;19.152;2023-02-23T11:13:46;98049.61;;;16.73;40.75
41306;BME280;27051;50.376;19.152;2023-02-23T11:16:29;98045.79;;;16.99;40.70
41306;BME280;27051;50.376;19.152;2023-02-23T11:19:23;98042.52;;;17.27;40.26
41306;BME280;27051;50.376;19.152;2023-02-23T11:21:51;98036.91;;;17.46;40.34
41306;BME280;27051;50.376;19.152;2023-02-23T11:24:28;98035.77;;;17.69;39.78
41306;BME280;27051;50.376;19.152;2023-02-23T11:27:00;98030.66;;;17.97;39.94
41306;BME280;27051;50.376;19.152;2023-02-23T11:32:18;98025.57;;;18.32;38.92
41306;BME280;27051;50.376;19.152;2023-02-23T11:34:46;98023.55;;;18.28;38.76
41306;BME280;27051;50.376;19.152;2023-02-23T11:39:57;98020.40;;;18.12;38.84
41306;BME280;27051;50.376;19.152;2023-02-23T11:42:26;98016.60;;;18.07;38.69
41306;BME280;27051;50.376;19.152;2023-02-23T11:47:29;98015.11;;;17.77;37.94
41306;BME280;27051;50.376;19.152;2023-02-23T11:49:57;98012.61;;;17.59;38.17
41306;BME280;27051;50.376;19.152;2023-02-23T11:52:24;98013.75;;;17.41;37.80
41306;BME280;27051;50.376;19.152;2023-02-23T11:55:00;98011.64;;;17.23;38.16
41306;BME280;27051;50.376;19.152;2023-02-23T11:57:33;98009.39;;;16.97;37.90
41306;BME280;27051;50.376;19.152;2023-02-23T12:00:21;98008.98;;;16.73;37.90
41306;BME280;27051;50.376;19.152;2023-02-23T12:02:57;98004.02;;;16.42;38.10
41306;BME280;27051;50.376;19.152;2023-02-23T12:05:27;98002.45;;;16.11;38.05
41306;BME280;27051;50.376;19.152;2023-02-23T12:08:13;98003.27;;;15.75;38.30
41306;BME280;27051;50.376;19.152;2023-02-23T12:10:52;98002.48;;;15.48;38.66
41306;BME280;27051;50.376;19.152;2023-02-23T12:16:09;98001.14;;;14.98;38.68
41306;BME280;27051;50.376;19.152;2023-02-23T12:18:40;97998.71;;;14.82;38.71
41306;BME280;27051;50.376;19.152;2023-02-23T12:24:27;97990.55;;;14.58;38.81
41306;BME280;27051;50.376;19.152;2023-02-23T12:32:33;97983.08;;;14.38;39.42
41306;BME280;27051;50.376;19.152;2023-02-23T12:35:25;97977.98;;;14.38;39.05
41306;BME280;27051;50.376;19.152;2023-02-23T12:37:59;97980.86;;;14.23;38.73
41306;BME280;27051;50.376;19.152;2023-02-23T12:40:31;97969.52;;;13.96;39.30
41306;BME280;27051;50.376;19.152;2023-02-23T12:43:06;97964.63;;;13.93;39.27
41306;BME280;27051;50.376;19.152;2023-02-23T12:45:52;97963.55;;;13.83;39.42
41306;BME280;27051;50.376;19.152;2023-02-23T12:51:14;97956.73;;;13.71;39.75
41306;BME280;27051;50.376;19.152;2023-02-23T12:53:43;97953.52;;;13.72;39.75
41306;BME280;27051;50.376;19.152;2023-02-23T13:01:53;97945.11;;;13.58;39.90
41306;BME280;27051;50.376;19.152;2023-02-23T13:04:46;97938.48;;;13.57;40.28
41306;BME280;27051;50.376;19.152;2023-02-23T13:07:46;97938.48;;;13.62;40.14
41306;BME280;27051;50.376;19.152;2023-02-23T13:13:41;97932.86;;;13.26;40.33
41306;BME280;27051;50.376;19.152;2023-02-23T13:16:26;97931.59;;;13.20;40.56
41306;BME280;27051;50.376;19.152;2023-02-23T13:19:09;97928.58;;;13.19;40.99
41306;BME280;27051;50.376;19.152;2023-02-23T13:21:41;97925.80;;;13.24;40.82
41306;BME280;27051;50.376;19.152;2023-02-23T13:24:17;97923.65;;;13.28;40.84
41306;BME280;27051;50.376;19.152;2023-02-23T13:26:46;97922.17;;;13.41;41.06
41306;BME280;27051;50.376;19.152;2023-02-23T13:31:53;97912.98;;;13.92;40.60
41306;BME280;27051;50.376;19.152;2023-02-23T13:34:29;97909.09;;;14.20;40.58
41306;BME280;27051;50.376;19.152;2023-02-23T13:36:58;97914.73;;;14.34;40.32
41306;BME280;27051;50.376;19.152;2023-02-23T13:42:23;97904.91;;;14.70;40.42
41306;BME280;27051;50.376;19.152;2023-02-23T13:45:10;97901.53;;;14.97;40.04
41306;BME280;27051;50.376;19.152;2023-02-23T13:47:47;97895.33;;;15.21;39.92
41306;BME280;27051;50.376;19.152;2023-02-23T13:50:23;97898.73;;;15.40;39.64
41306;BME280;27051;50.376;19.152;2023-02-23T13:52:54;97893.68;;;15.48;39.83
41306;BME280;27051;50.376;19.152;2023-02-23T13:57:55;97889.39;;;15.34;39.94
41306;BME280;27051;50.376;19.152;2023-02-23T14:00:27;97890.20;;;15.37;39.97
41306;BME280;27051;50.376;19.152;2023-02-23T14:02:54;97884.79;;;15.38;39.92
41306;BME280;27051;50.376;19.152;2023-02-23T14:05:23;97885.81;;;15.40;39.92
41306;BME280;27051;50.376;19.152;2023-02-23T14:07:53;97885.41;;;15.28;39.57
41306;BME280;27051;50.376;19.152;2023-02-23T14:10:53;97884.31;;;15.08;39.71
41306;BME280;27051;50.376;19.152;2023-02-23T14:18:53;97885.38;;;14.97;39.99
41306;BME280;27051;50.376;19.152;2023-02-23T14:21:30;97874.68;;;15.02;39.91
41306;BME280;27051;50.376;19.152;2023-02-23T14:29:29;97868.34;;;15.55;39.83
41306;BME280;27051;50.376;19.152;2023-02-23T14:37:25;97864.48;;;15.67;39.60
41306;BME280;27051;50.376;19.152;2023-02-23T14:39:54;97861.30;;;15.55;39.74
41306;BME280;27051;50.376;19.152;2023-02-23T14:42:26;97863.36;;;15.50;39.61
41306;BME280;27051;50.376;19.152;2023-02-23T14:44:54;97860.48;;;15.37;39.69
41306;BME280;27051;50.376;19.152;2023-02-23T14:47:22;97860.77;;;15.13;39.91
41306;BME280;27051;50.376;19.152;2023-02-23T14:49:55;97857.46;;;14.87;39.89
41306;BME280;27051;50.376;19.152;2023-02-23T14:52:27;97858.56;;;14.66;40.21
41306;BME280;27051;50.376;19.152;2023-02-23T14:57:41;97853.46;;;14.39;40.40
41306;BME280;27051;50.376;19.152;2023-02-23T15:00:28;97854.56;;;14.26;40.47
41306;BME280;27051;50.376;19.152;2023-02-23T15:03:06;97851.89;;;14.08;40.65
41306;BME280;27051;50.376;19.152;2023-02-23T15:05:41;97851.02;;;13.88;40.89
41306;BME280;27051;50.376;19.152;2023-02-23T15:08:12;97849.05;;;13.74;40.90